Vladivostok, Russia
Current Conditions -  °F | °C
As of 6:30 PM on Thursday 18 Dec 2014 (Local Time) from UHWW Reporting Station
Clear Clear  
Wind Chill: -13°   Ceiling: Unl
Heat Index:   Visibility: 6mi
Dew Point: -15°   Wind: 9mph
Humidity: 47%   Direction: 40°NE
Pressure: 30.48"   Gusts: NA
Location:  43.13°N, 131.9°E
Report Text: UHWW 180830Z 04004MPS 9999 SKC M17/M26 Q1032 NOSIG RMKQFE773/1031 57CLRD60
Loading
Personal Weather Stations






























Interactive Weather Map New forecast layout! Learn more

10-Day Weather Forecast

Advertisements
Track Severe Weather on mobile